Terminal Aerodrome Forecast
Issued by NWS

Home | Current Version | Previous Version | Text Only | Print | Product List | Glossary On
Versions: 1 2 3 4 5 6 7 8 9 10 11 12 13 14 15 16 17 18 19 20 21 22
000
FTUS45 KABQ 201700
TAFFMN
TAF
KFMN 201738Z 2018/2118 25006KT P6SM FEW250
     FM202100 27009KT P6SM BKN250
     FM210200 02005KT P6SM BKN200
     FM211200 05006KT P6SM BKN060=

USA.gov is the U.S. government's official web portal to all federal, state and local government web resources and services.